YFA weather

La Rivera Airport
Caborca, Sonora, Mexico

Public forecast

Using degrees Celsius for public forecast. Weather courtesy of forecast.io.

Closest aviation weather report (METAR) to La Rivera Airport

Closest report is (Old) Puerto PeƱasco Airport, 43.6 nm (80.7 km) NW. Retrieved UTC (0 seconds ago):

Closest aviation forecast (TAF) to La Rivera Airport

Closest forecast is Nogales International Airport, 111.9 nm (207.2 km) ENE. Retrieved 2020-06-05 00:39 UTC (3 hours ago):

TAF KOLS 042336Z 0500/0524 22010G20KT P6SM FEW120 BKN200 FM050200 VRB03KT P6SM FEW120 BKN200 FM052000 21012G18KT P6SM FEW120 BKN200